Disclaimer

Please do not use the information listed here in-flight or in-navigation, as they are not provided to us by the airports but are provided by volunteers, so they might be outdated.

Search


Regions


Airport information page

Radio informations:
Aerodrome flight information system (AFIS) - 124.85 MHz

Airport informations:
Latitude: 62° 03' 49.06" N
Longitude: 007° 16' 37.99" W
Elevation: 280 feet - 85 meters
Operating hours: Remarks
Operating agency: Civil government, landing fees and diplomatic clearance may be required
Timezone: UTC 0(+1DT) - Last Sunday in March to last Sunday in October
Fuel: Jet A1, without icing nhibitor.

100/130 MIL Spec, low lead, aviation gasoline (BLUE)

Runway information:
13/31 - 4101 x 98 feet< - >1250 x 30 meters

Recent METARs:
EKVG 160850Z AUTO 14023G39KT 9999NDV -SHRA SCT011/// BKN029/// BKN063/// 06/04 Q0987 RMK OVC009/// WIND 850FT 14043KT
EKVG 160920Z AUTO 13018G29KT 9999NDV SCT014/// BKN028/// BKN058/// 06/04 Q0987 RMK OVC012/// WIND 850FT 14039KT
EKVG 160950Z AUTO 13017G30KT 9999NDV FEW015/// BKN024/// 06/05 Q0987 RMK OVC010/// WIND 850FT 14035KT

Airport on the map: